createdAt,value
2022-10-30T00:01:23.665Z,28.77
2022-10-30T00:03:52.074Z,28.80
2022-10-30T00:06:20.569Z,25.40
2022-10-30T00:08:48.908Z,32.60
2022-10-30T00:11:17.304Z,28.07
2022-10-30T00:13:46.124Z,33.10
2022-10-30T00:16:14.552Z,27.97
2022-10-30T00:18:44.008Z,34.57
2022-10-30T00:21:16.827Z,34.30
2022-10-30T00:23:53.625Z,41.27
2022-10-30T00:26:24.201Z,49.30
2022-10-30T00:28:54.692Z,47.60
2022-10-30T00:31:23.679Z,39.67
2022-10-30T00:33:53.884Z,26.57
2022-10-30T00:36:23.234Z,24.67
2022-10-30T00:38:51.690Z,24.07
2022-10-30T00:41:23.624Z,29.80
2022-10-30T00:43:52.847Z,21.47
2022-10-30T00:46:31.869Z,25.77
2022-10-30T00:49:11.769Z,23.03
2022-10-30T00:51:43.156Z,28.93
2022-10-30T00:54:11.692Z,23.87
2022-10-30T00:56:40.468Z,25.17
2022-10-30T00:59:13.807Z,21.70
2022-10-30T01:01:45.775Z,27.83
2022-10-30T01:04:16.371Z,27.27
2022-10-30T01:06:49.037Z,22.97
2022-10-30T01:09:17.685Z,30.20
2022-10-30T01:11:46.341Z,34.37
2022-10-30T01:14:18.096Z,29.63
2022-10-30T01:16:52.295Z,30.60
2022-10-30T01:19:31.105Z,32.63
2022-10-30T01:22:10.721Z,23.73
2022-10-30T01:24:57.313Z,32.20
2022-10-30T01:27:31.800Z,32.80
2022-10-30T01:30:12.588Z,29.53
2022-10-30T01:32:53.945Z,27.83
2022-10-30T01:35:34.536Z,37.67
2022-10-30T01:38:08.988Z,36.47
2022-10-30T01:40:38.774Z,58.23
2022-10-30T01:43:07.125Z,46.60
2022-10-30T01:45:41.569Z,37.23
2022-10-30T01:48:39.146Z,37.20
2022-10-30T01:51:17.887Z,33.40
2022-10-30T01:54:19.081Z,37.70
2022-10-30T01:57:14.629Z,37.77
2022-10-30T02:00:16.015Z,32.73
2022-10-30T02:02:45.037Z,40.20
2022-10-30T02:05:22.367Z,40.17
2022-10-30T02:07:50.744Z,31.00
2022-10-30T02:10:19.311Z,36.77
2022-10-30T02:12:48.216Z,26.17
2022-10-30T02:15:17.696Z,26.10
2022-10-30T02:17:46.432Z,31.53
2022-10-30T02:20:22.166Z,37.10
2022-10-30T02:22:53.133Z,36.97
2022-10-30T02:25:26.209Z,37.30
2022-10-30T02:27:54.675Z,26.83
2022-10-30T02:30:23.111Z,33.53
2022-10-30T02:32:51.565Z,26.70
2022-10-30T02:35:19.923Z,35.77
2022-10-30T02:37:50.136Z,40.20
2022-10-30T02:40:18.910Z,42.53
2022-10-30T02:42:52.593Z,46.23
2022-10-30T02:45:21.255Z,52.40
2022-10-30T02:47:49.766Z,56.93
2022-10-30T02:50:18.466Z,31.97
2022-10-30T02:52:47.187Z,49.03
2022-10-30T02:55:15.579Z,36.50
2022-10-30T02:57:44.036Z,33.23
2022-10-30T03:00:13.380Z,30.40
2022-10-30T03:02:41.840Z,26.47
2022-10-30T03:05:10.402Z,24.60
2022-10-30T03:07:38.818Z,25.10
2022-10-30T03:10:07.558Z,21.90
2022-10-30T03:12:35.900Z,24.73
2022-10-30T03:15:04.379Z,37.10
2022-10-30T03:17:32.838Z,35.83
2022-10-30T03:20:01.218Z,25.87
2022-10-30T03:22:30.736Z,23.70
2022-10-30T03:24:59.094Z,22.83
2022-10-30T03:27:27.450Z,21.80
2022-10-30T03:29:55.868Z,24.30
2022-10-30T03:34:53.424Z,25.77
2022-10-30T03:37:21.797Z,25.27
2022-10-30T03:39:50.134Z,35.20
2022-10-30T03:42:18.463Z,39.60
2022-10-30T03:44:46.849Z,30.70
2022-10-30T03:47:15.200Z,31.80
2022-10-30T03:49:43.545Z,31.13
2022-10-30T03:52:11.936Z,25.83
2022-10-30T03:54:40.277Z,40.77
2022-10-30T03:57:08.799Z,25.10
2022-10-30T03:59:37.259Z,24.60
2022-10-30T04:02:05.717Z,28.83
2022-10-30T04:04:34.171Z,29.97
2022-10-30T04:07:02.564Z,29.90
2022-10-30T04:09:30.917Z,34.50
2022-10-30T04:11:59.243Z,49.17
2022-10-30T04:14:27.627Z,46.90
2022-10-30T04:16:56.012Z,30.63
2022-10-30T04:19:24.411Z,36.87
2022-10-30T04:21:52.872Z,29.47
2022-10-30T04:24:21.268Z,27.10
2022-10-30T04:26:49.700Z,27.87
2022-10-30T04:29:18.148Z,35.17
2022-10-30T04:31:46.525Z,28.57
2022-10-30T04:34:14.865Z,30.53
2022-10-30T04:36:43.309Z,23.77
2022-10-30T04:39:11.848Z,25.60
2022-10-30T04:41:40.228Z,23.13
2022-10-30T04:44:08.621Z,24.43
2022-10-30T04:46:36.989Z,27.83
2022-10-30T04:49:05.373Z,34.20
2022-10-30T04:51:33.853Z,24.83
2022-10-30T04:54:02.495Z,25.20
2022-10-30T04:56:30.833Z,23.10
2022-10-30T04:58:59.215Z,22.30
2022-10-30T05:01:27.682Z,22.80
2022-10-30T05:03:56.153Z,22.00
2022-10-30T05:06:30.181Z,21.53
2022-10-30T05:08:59.239Z,37.97
2022-10-30T05:11:27.857Z,40.10
2022-10-30T05:13:57.011Z,32.90
2022-10-30T05:16:25.525Z,31.77
2022-10-30T05:18:54.073Z,28.40
2022-10-30T05:21:22.489Z,24.40
2022-10-30T05:23:50.878Z,23.87
2022-10-30T05:26:19.324Z,26.23
2022-10-30T05:28:48.365Z,25.40
2022-10-30T05:31:16.756Z,27.47
2022-10-30T05:33:45.194Z,24.53
2022-10-30T05:36:13.855Z,24.33
2022-10-30T05:38:42.256Z,28.00
2022-10-30T05:41:10.663Z,27.03
2022-10-30T05:43:39.199Z,26.30
2022-10-30T05:46:07.631Z,36.90
2022-10-30T05:48:36.175Z,35.07
2022-10-30T05:51:05.321Z,36.70
2022-10-30T05:53:33.857Z,41.53
2022-10-30T05:56:02.270Z,26.17
2022-10-30T05:58:30.739Z,27.00
2022-10-30T06:00:59.093Z,31.07
2022-10-30T06:03:27.469Z,35.57
2022-10-30T06:05:55.875Z,38.90
2022-10-30T06:08:24.236Z,28.63
2022-10-30T06:10:54.711Z,32.90
2022-10-30T06:13:23.603Z,30.57
2022-10-30T06:15:51.967Z,29.27
2022-10-30T06:18:20.324Z,36.10
2022-10-30T06:20:48.814Z,43.93
2022-10-30T06:23:17.287Z,49.83
2022-10-30T06:25:45.629Z,44.73
2022-10-30T06:28:15.021Z,33.07
2022-10-30T06:30:43.375Z,37.97
2022-10-30T06:33:12.173Z,31.37
2022-10-30T06:35:40.545Z,33.27
2022-10-30T06:38:10.843Z,30.63
2022-10-30T06:40:39.248Z,34.00
2022-10-30T06:43:07.688Z,32.60
2022-10-30T06:45:36.097Z,41.90
2022-10-30T06:48:04.588Z,34.87
2022-10-30T06:50:33.199Z,31.10
2022-10-30T06:53:01.543Z,33.90
2022-10-30T06:55:29.949Z,46.93
2022-10-30T06:57:59.212Z,44.27
2022-10-30T07:00:30.858Z,37.20
2022-10-30T07:03:03.293Z,36.97
2022-10-30T07:05:31.975Z,34.97
2022-10-30T07:08:00.534Z,34.80
2022-10-30T07:10:29.155Z,35.63
2022-10-30T07:12:59.702Z,35.60
2022-10-30T07:15:29.056Z,33.43
2022-10-30T07:18:04.541Z,34.77
2022-10-30T07:20:35.366Z,38.27
2022-10-30T07:23:04.605Z,34.27
2022-10-30T07:25:33.270Z,34.23
2022-10-30T07:28:02.712Z,32.23
2022-10-30T07:30:31.349Z,31.67
2022-10-30T07:33:04.893Z,32.37
2022-10-30T07:35:35.934Z,45.63
2022-10-30T07:38:11.009Z,32.77
2022-10-30T07:40:39.575Z,36.83
2022-10-30T07:43:08.026Z,44.10
2022-10-30T07:45:36.482Z,45.47
2022-10-30T07:48:04.954Z,33.90
2022-10-30T07:50:33.731Z,42.50
2022-10-30T07:53:02.344Z,34.60
2022-10-30T07:55:30.773Z,33.20
2022-10-30T07:57:59.492Z,33.17
2022-10-30T08:00:28.290Z,50.90
2022-10-30T08:03:00.071Z,47.00
2022-10-30T08:05:29.941Z,46.77
2022-10-30T08:07:59.786Z,34.30
2022-10-30T08:10:28.811Z,39.47
2022-10-30T08:12:57.377Z,32.13
2022-10-30T08:15:26.096Z,30.90
2022-10-30T08:17:54.562Z,29.83
2022-10-30T08:20:24.904Z,38.37
2022-10-30T08:22:55.608Z,32.70
2022-10-30T08:25:29.665Z,29.57
2022-10-30T08:28:03.387Z,31.07
2022-10-30T08:30:35.192Z,29.90
2022-10-30T08:33:06.200Z,28.93
2022-10-30T08:38:07.928Z,28.57
2022-10-30T08:40:36.337Z,30.03
2022-10-30T08:43:04.811Z,34.77
2022-10-30T08:45:33.220Z,34.57
2022-10-30T08:48:04.186Z,26.53
2022-10-30T08:50:34.296Z,26.10
2022-10-30T08:53:11.239Z,36.47
2022-10-30T08:55:39.783Z,30.77
2022-10-30T08:58:08.166Z,28.57
2022-10-30T09:00:36.632Z,33.47
2022-10-30T09:03:05.227Z,43.90
2022-10-30T09:05:33.680Z,55.00
2022-10-30T09:08:02.462Z,39.80
2022-10-30T09:10:31.633Z,46.13
2022-10-30T09:13:02.658Z,41.67
2022-10-30T09:15:31.419Z,31.53
2022-10-30T09:18:04.565Z,29.03
2022-10-30T09:20:33.027Z,46.43
2022-10-30T09:23:01.845Z,27.10
2022-10-30T09:25:30.547Z,36.27
2022-10-30T09:27:58.947Z,26.13
2022-10-30T09:30:27.376Z,41.10
2022-10-30T09:33:00.023Z,45.70
2022-10-30T09:35:28.907Z,29.93
2022-10-30T09:37:58.160Z,35.27
2022-10-30T09:40:48.303Z,42.17
2022-10-30T09:43:36.970Z,33.00
2022-10-30T09:46:26.930Z,27.10
2022-10-30T09:49:16.280Z,33.00
2022-10-30T09:52:09.625Z,36.37
2022-10-30T09:54:53.197Z,35.87
2022-10-30T09:57:33.837Z,31.13
2022-10-30T10:00:16.182Z,36.97
2022-10-30T10:03:13.743Z,27.83
2022-10-30T10:05:51.145Z,28.47
2022-10-30T10:08:41.071Z,39.63
2022-10-30T10:11:35.772Z,27.90
2022-10-30T10:14:16.225Z,42.67
2022-10-30T10:16:50.472Z,37.80
2022-10-30T10:19:33.572Z,39.40
2022-10-30T10:22:04.330Z,28.23
2022-10-30T10:24:43.338Z,42.70
2022-10-30T10:28:01.967Z,43.60
2022-10-30T10:30:46.269Z,27.93
2022-10-30T10:33:58.988Z,29.83
2022-10-30T10:36:46.039Z,26.63
2022-10-30T10:39:40.579Z,24.43
2022-10-30T10:42:33.773Z,36.30
2022-10-30T10:45:38.315Z,28.20
2022-10-30T10:48:33.858Z,40.20
2022-10-30T10:51:08.105Z,26.40
2022-10-30T10:54:05.143Z,24.17
2022-10-30T10:56:37.012Z,23.03
2022-10-30T10:59:32.532Z,26.30
2022-10-30T11:02:07.025Z,25.67
2022-10-30T11:04:42.464Z,28.07
2022-10-30T11:07:31.673Z,40.77
2022-10-30T11:10:00.251Z,41.60
2022-10-30T11:12:36.479Z,24.40
2022-10-30T11:15:19.544Z,25.10
2022-10-30T11:17:54.279Z,24.60
2022-10-30T11:20:43.464Z,25.97
2022-10-30T11:23:34.336Z,25.57
2022-10-30T11:26:05.934Z,26.70
2022-10-30T11:28:43.203Z,24.43
2022-10-30T11:31:29.248Z,26.30
2022-10-30T11:33:57.982Z,25.37
2022-10-30T11:36:27.320Z,27.27
2022-10-30T11:38:59.555Z,24.60
2022-10-30T11:41:28.057Z,24.37
2022-10-30T11:43:56.446Z,24.83
2022-10-30T11:46:25.507Z,24.70
2022-10-30T11:48:57.521Z,24.87
2022-10-30T11:51:38.687Z,32.40
2022-10-30T11:54:08.274Z,31.70
2022-10-30T11:56:37.196Z,25.77
2022-10-30T11:59:06.757Z,33.07
2022-10-30T12:01:39.892Z,40.70
2022-10-30T12:04:25.129Z,35.53
2022-10-30T12:07:30.270Z,26.80
2022-10-30T12:10:00.194Z,39.47
2022-10-30T12:12:37.348Z,28.80
2022-10-30T12:15:21.385Z,26.00
2022-10-30T12:18:01.048Z,26.00
2022-10-30T12:20:30.582Z,27.07
2022-10-30T12:22:59.669Z,35.17
2022-10-30T12:25:33.973Z,39.17
2022-10-30T12:28:15.123Z,28.97
2022-10-30T12:31:12.500Z,26.67
2022-10-30T12:33:51.103Z,33.47
2022-10-30T12:36:24.624Z,26.53
2022-10-30T12:38:52.929Z,34.57
2022-10-30T12:41:26.064Z,30.93
2022-10-30T12:44:21.778Z,27.50
2022-10-30T12:47:10.618Z,32.87
2022-10-30T12:49:45.821Z,34.90
2022-10-30T12:52:23.856Z,32.23
2022-10-30T12:55:16.894Z,33.37
2022-10-30T12:58:12.214Z,31.80
2022-10-30T13:00:49.246Z,42.37
2022-10-30T13:04:13.025Z,38.00
2022-10-30T13:07:04.129Z,32.97
2022-10-30T13:09:41.398Z,28.10
2022-10-30T13:12:19.205Z,39.73
2022-10-30T13:14:59.317Z,29.50
2022-10-30T13:17:29.549Z,26.67
2022-10-30T13:19:57.959Z,31.27
2022-10-30T13:23:07.796Z,39.23
2022-10-30T13:25:59.810Z,35.27
2022-10-30T13:28:34.654Z,34.60
2022-10-30T13:31:12.995Z,23.77
2022-10-30T13:33:58.644Z,22.17
2022-10-30T13:36:39.188Z,22.07
2022-10-30T13:39:19.980Z,16.20
2022-10-30T13:42:06.513Z,17.87
2022-10-30T13:44:40.715Z,17.47
2022-10-30T13:47:30.192Z,15.03
2022-10-30T13:50:19.000Z,11.40
2022-10-30T13:52:54.388Z,11.63
2022-10-30T13:55:22.824Z,9.97
2022-10-30T13:58:11.289Z,8.37
2022-10-30T14:01:05.648Z,7.90
2022-10-30T14:03:44.567Z,6.10
2022-10-30T14:06:32.245Z,7.30
2022-10-30T14:09:04.123Z,5.77
2022-10-30T14:11:32.515Z,7.73
2022-10-30T14:14:29.194Z,6.67
2022-10-30T14:17:14.733Z,6.13
2022-10-30T14:20:13.667Z,5.67
2022-10-30T14:22:43.149Z,6.50
2022-10-30T14:25:17.070Z,4.70
2022-10-30T14:27:57.152Z,6.70
2022-10-30T14:30:29.799Z,4.80
2022-10-30T14:32:58.338Z,6.33
2022-10-30T14:35:35.687Z,6.47
2022-10-30T14:38:10.153Z,5.07
2022-10-30T14:41:19.707Z,5.10
2022-10-30T14:44:03.001Z,5.40
2022-10-30T14:46:37.995Z,4.77
2022-10-30T14:49:29.557Z,4.43
2022-10-30T14:52:41.995Z,5.10
2022-10-30T14:55:24.878Z,4.97
2022-10-30T14:57:55.114Z,6.27
2022-10-30T15:00:26.706Z,4.87
2022-10-30T15:03:15.592Z,4.20
2022-10-30T15:05:47.028Z,4.93
2022-10-30T15:08:18.246Z,4.83
2022-10-30T15:11:12.888Z,4.97
2022-10-30T15:13:51.597Z,4.73
2022-10-30T15:16:22.004Z,4.70
2022-10-30T15:19:06.248Z,5.07
2022-10-30T15:21:42.273Z,6.27
2022-10-30T15:24:22.581Z,4.50
2022-10-30T15:27:02.402Z,5.90
2022-10-30T15:29:35.072Z,4.80
2022-10-30T15:32:06.421Z,3.10
2022-10-30T15:34:34.940Z,4.17
2022-10-30T15:37:13.515Z,4.00
2022-10-30T15:39:41.848Z,3.90
2022-10-30T15:42:11.501Z,4.20
2022-10-30T15:44:43.247Z,4.40
2022-10-30T15:47:18.067Z,4.50
2022-10-30T15:49:57.046Z,6.40
2022-10-30T15:52:30.353Z,4.30
2022-10-30T15:55:07.887Z,4.97
2022-10-30T16:00:39.352Z,5.47
2022-10-30T16:03:13.558Z,4.70
2022-10-30T16:05:42.329Z,4.80
2022-10-30T16:08:23.056Z,4.00
2022-10-30T16:10:55.296Z,5.00
2022-10-30T16:13:32.460Z,3.53
2022-10-30T16:16:03.977Z,3.87
2022-10-30T16:18:36.612Z,4.60
2022-10-30T16:21:09.544Z,4.10
2022-10-30T16:23:52.751Z,3.77
2022-10-30T16:26:26.331Z,3.70
2022-10-30T16:28:54.744Z,3.20
2022-10-30T16:31:25.147Z,3.40
2022-10-30T16:33:54.324Z,3.60
2022-10-30T16:36:23.091Z,3.50
2022-10-30T16:38:51.686Z,3.57
2022-10-30T16:41:26.553Z,4.33
2022-10-30T16:44:13.676Z,3.70
2022-10-30T16:46:51.596Z,3.53
2022-10-30T16:49:25.712Z,4.03
2022-10-30T16:51:59.167Z,3.27
2022-10-30T16:54:37.837Z,4.83
2022-10-30T16:57:16.988Z,4.00
2022-10-30T16:59:53.061Z,2.80
2022-10-30T17:02:30.700Z,3.80
2022-10-30T17:05:35.202Z,3.70
2022-10-30T17:08:06.901Z,3.30
2022-10-30T17:10:44.798Z,3.67
2022-10-30T17:13:32.074Z,3.63
2022-10-30T17:16:24.916Z,3.40
2022-10-30T17:18:55.434Z,3.33
2022-10-30T17:21:46.047Z,3.40
2022-10-30T17:24:42.443Z,3.90
2022-10-30T17:27:29.884Z,3.40
2022-10-30T17:29:58.438Z,3.57
2022-10-30T17:32:43.639Z,3.40
2022-10-30T17:35:20.274Z,3.47
2022-10-30T17:37:48.710Z,3.63
2022-10-30T17:40:18.864Z,3.60
2022-10-30T17:42:51.249Z,3.77
2022-10-30T17:45:19.629Z,4.20
2022-10-30T17:47:48.097Z,4.00
2022-10-30T17:50:16.527Z,3.83
2022-10-30T17:52:44.976Z,4.37
2022-10-30T17:55:30.425Z,4.77
2022-10-30T17:57:58.851Z,4.80
2022-10-30T18:00:27.297Z,4.63
2022-10-30T18:02:55.720Z,4.30
2022-10-30T18:05:29.812Z,3.43
2022-10-30T18:07:58.323Z,3.20
2022-10-30T18:10:26.730Z,3.40
2022-10-30T18:12:55.064Z,3.17
2022-10-30T18:15:36.665Z,3.70
2022-10-30T18:18:05.464Z,3.97
2022-10-30T18:20:34.491Z,3.57
2022-10-30T18:23:03.232Z,3.67
2022-10-30T18:25:34.576Z,2.90
2022-10-30T18:28:04.116Z,3.63
2022-10-30T18:30:32.610Z,4.57
2022-10-30T18:33:01.290Z,4.03
2022-10-30T18:35:40.622Z,3.70
2022-10-30T18:38:09.150Z,3.67
2022-10-30T18:40:37.629Z,3.47
2022-10-30T18:43:06.031Z,2.93
2022-10-30T18:45:41.791Z,3.60
2022-10-30T18:48:10.981Z,3.87
2022-10-30T18:50:39.807Z,3.57
2022-10-30T18:53:16.888Z,5.10
2022-10-30T18:55:46.149Z,3.97
2022-10-30T18:58:14.539Z,3.23
2022-10-30T19:01:10.427Z,4.00
2022-10-30T19:03:32.179Z,3.30
2022-10-30T19:06:00.564Z,4.07
2022-10-30T19:08:28.949Z,4.07
2022-10-30T19:10:59.003Z,3.57
2022-10-30T19:13:27.550Z,3.77
2022-10-30T19:16:00.327Z,4.20
2022-10-30T19:18:31.918Z,4.30
2022-10-30T19:21:05.227Z,4.33
2022-10-30T19:23:35.617Z,5.13
2022-10-30T19:26:04.040Z,5.60
2022-10-30T19:28:33.519Z,4.70
2022-10-30T19:31:02.235Z,5.20
2022-10-30T19:33:30.609Z,5.67
2022-10-30T19:36:01.853Z,6.43
2022-10-30T19:38:31.098Z,4.90
2022-10-30T19:40:59.767Z,5.90
2022-10-30T19:43:28.268Z,4.90
2022-10-30T19:45:58.796Z,5.13
2022-10-30T19:48:56.186Z,5.57
2022-10-30T19:51:15.606Z,5.37
2022-10-30T19:53:44.011Z,4.93
2022-10-30T19:56:15.056Z,4.60
2022-10-30T19:58:43.471Z,4.90
2022-10-30T20:01:14.386Z,4.57
2022-10-30T20:03:42.910Z,5.07
2022-10-30T20:06:13.672Z,6.40
2022-10-30T20:08:42.629Z,4.80
2022-10-30T20:11:11.289Z,4.87
2022-10-30T20:13:39.803Z,4.87
2022-10-30T20:16:08.741Z,4.93
2022-10-30T20:18:37.641Z,4.33
2022-10-30T20:21:11.338Z,4.93
2022-10-30T20:23:40.335Z,5.13
2022-10-30T20:26:27.682Z,5.30
2022-10-30T20:28:56.273Z,6.00
2022-10-30T20:31:24.983Z,6.07
2022-10-30T20:33:53.547Z,5.30
2022-10-30T20:36:22.036Z,5.70
2022-10-30T20:38:50.371Z,7.30
2022-10-30T20:41:24.567Z,7.30
2022-10-30T20:43:53.033Z,8.80
2022-10-30T20:46:22.179Z,7.30
2022-10-30T20:48:50.629Z,6.53
2022-10-30T20:51:19.350Z,5.13
2022-10-30T20:53:47.724Z,6.90
2022-10-30T20:56:16.270Z,6.00
2022-10-30T20:58:44.683Z,6.50
2022-10-30T21:01:14.420Z,7.30
2022-10-30T21:03:43.009Z,6.87
2022-10-30T21:06:11.429Z,6.70
2022-10-30T21:08:39.794Z,9.03
2022-10-30T21:11:09.004Z,6.33
2022-10-30T21:13:37.812Z,6.23
2022-10-30T21:16:09.354Z,5.70
2022-10-30T21:18:37.943Z,5.60
2022-10-30T21:21:09.089Z,6.40
2022-10-30T21:23:37.443Z,6.50
2022-10-30T21:26:08.323Z,9.27
2022-10-30T21:28:36.755Z,6.60
2022-10-30T21:31:11.674Z,6.80
2022-10-30T21:33:40.161Z,5.93
2022-10-30T21:36:20.786Z,9.00
2022-10-30T21:38:49.373Z,7.80
2022-10-30T21:41:22.881Z,6.13
2022-10-30T21:43:59.168Z,5.03
2022-10-30T21:46:30.580Z,6.27
2022-10-30T21:49:04.644Z,5.00
2022-10-30T21:51:33.979Z,7.80
2022-10-30T21:54:02.391Z,7.57
2022-10-30T21:56:32.215Z,9.33
2022-10-30T21:59:07.707Z,9.77
2022-10-30T22:01:37.706Z,6.73
2022-10-30T22:04:09.769Z,5.70
2022-10-30T22:06:45.730Z,6.80
2022-10-30T22:09:17.829Z,7.30
2022-10-30T22:11:46.240Z,6.27
2022-10-30T22:14:14.602Z,6.47
2022-10-30T22:16:43.055Z,6.07
2022-10-30T22:19:12.177Z,5.60
2022-10-30T22:21:40.608Z,4.90
2022-10-30T22:24:09.301Z,5.70
2022-10-30T22:26:37.660Z,6.63
2022-10-30T22:29:06.290Z,6.23
2022-10-30T22:31:34.708Z,7.10
2022-10-30T22:34:03.420Z,6.90
2022-10-30T22:36:33.817Z,6.47
2022-10-30T22:39:08.351Z,6.43
2022-10-30T22:41:38.467Z,5.23
2022-10-30T22:44:09.137Z,6.10
2022-10-30T22:46:38.051Z,6.30
2022-10-30T22:49:07.329Z,6.47
2022-10-30T22:51:38.272Z,5.97
2022-10-30T22:54:09.093Z,5.30
2022-10-30T22:56:38.917Z,5.70
2022-10-30T22:59:11.619Z,6.43
2022-10-30T23:01:41.443Z,5.40
2022-10-30T23:04:12.196Z,6.27
2022-10-30T23:06:40.684Z,7.50
2022-10-30T23:09:15.964Z,6.57
2022-10-30T23:11:44.373Z,5.93
2022-10-30T23:14:12.847Z,5.30
2022-10-30T23:16:41.319Z,8.67
2022-10-30T23:19:11.679Z,11.30
2022-10-30T23:21:40.139Z,8.50
2022-10-30T23:24:09.044Z,7.43
2022-10-30T23:26:37.592Z,6.50
2022-10-30T23:29:06.192Z,5.07
2022-10-30T23:31:36.180Z,7.23
2022-10-30T23:34:13.667Z,6.70
2022-10-30T23:36:43.243Z,4.93
2022-10-30T23:39:15.901Z,5.13
2022-10-30T23:41:45.047Z,6.93
2022-10-30T23:44:15.758Z,6.17
2022-10-30T23:46:44.710Z,6.37
2022-10-30T23:49:13.599Z,6.30
2022-10-30T23:51:41.961Z,5.70
2022-10-30T23:54:10.582Z,5.67
2022-10-30T23:56:39.059Z,5.57
2022-10-30T23:59:07.407Z,6.40
